createdAt,value
2022-11-19T00:03:43.482Z,5.53
2022-11-19T00:09:06.472Z,6.24
2022-11-19T00:14:35.645Z,5.50
2022-11-19T00:20:02.681Z,6.44
2022-11-19T00:25:32.737Z,6.18
2022-11-19T00:30:59.268Z,5.86
2022-11-19T00:36:29.108Z,5.59
2022-11-19T00:41:52.856Z,5.54
2022-11-19T00:47:17.109Z,5.40
2022-11-19T00:52:43.620Z,4.85
2022-11-19T00:58:12.903Z,5.01
2022-11-19T01:03:48.226Z,5.09
2022-11-19T01:09:20.534Z,5.99
2022-11-19T01:14:51.772Z,5.03
2022-11-19T01:21:08.968Z,6.70
2022-11-19T01:26:29.532Z,6.45
2022-11-19T01:31:55.040Z,6.88
2022-11-19T01:37:22.432Z,6.58
2022-11-19T01:42:48.817Z,6.63
2022-11-19T01:48:15.175Z,5.99
2022-11-19T01:53:44.632Z,6.14
2022-11-19T01:59:09.111Z,6.48
2022-11-19T02:04:34.964Z,6.16
2022-11-19T02:10:11.069Z,6.38
2022-11-19T02:15:40.379Z,5.87
2022-11-19T02:21:07.367Z,5.03
2022-11-19T02:26:49.998Z,5.10
2022-11-19T02:32:55.543Z,5.13
2022-11-19T02:38:22.594Z,5.17
2022-11-19T02:43:57.883Z,6.32
2022-11-19T02:49:27.406Z,5.49
2022-11-19T02:54:54.983Z,5.05
2022-11-19T03:00:38.892Z,5.79
2022-11-19T03:06:06.181Z,5.66
2022-11-19T03:11:36.798Z,5.47
2022-11-19T03:17:04.234Z,5.28
2022-11-19T03:22:30.979Z,5.25
2022-11-19T03:27:59.370Z,5.52
2022-11-19T03:33:25.898Z,4.85
2022-11-19T03:38:54.340Z,5.12
2022-11-19T03:44:22.967Z,4.94
2022-11-19T03:49:49.828Z,5.23
2022-11-19T03:55:12.996Z,5.16
2022-11-19T04:00:43.424Z,4.95
2022-11-19T04:06:09.552Z,5.23
2022-11-19T04:11:42.295Z,4.62
2022-11-19T04:17:14.265Z,4.65
2022-11-19T04:22:36.990Z,3.95
2022-11-19T04:28:00.070Z,3.14
2022-11-19T04:33:28.657Z,3.30
2022-11-19T04:38:57.018Z,3.28
2022-11-19T04:44:24.813Z,3.06
2022-11-19T04:49:50.745Z,3.06
2022-11-19T04:55:19.758Z,3.05
2022-11-19T05:00:46.191Z,2.99
2022-11-19T05:06:10.835Z,2.54
2022-11-19T05:11:35.312Z,2.02
2022-11-19T05:16:58.537Z,1.73
2022-11-19T05:23:24.177Z,1.89
2022-11-19T05:28:46.295Z,1.53
2022-11-19T05:34:09.024Z,1.91
2022-11-19T05:39:35.489Z,1.80
2022-11-19T05:45:01.614Z,2.15
2022-11-19T05:50:26.792Z,2.61
2022-11-19T05:55:52.013Z,1.94
2022-11-19T06:01:29.895Z,1.64
2022-11-19T06:07:08.184Z,1.43
2022-11-19T06:12:42.567Z,1.85
2022-11-19T06:18:03.404Z,1.27
2022-11-19T06:23:26.858Z,1.49
2022-11-19T06:28:48.096Z,1.54
2022-11-19T06:34:09.286Z,1.53
2022-11-19T06:39:30.499Z,1.36
2022-11-19T06:44:51.563Z,1.63
2022-11-19T06:50:12.985Z,1.75
2022-11-19T06:55:40.200Z,1.41
2022-11-19T07:01:05.345Z,1.52
2022-11-19T07:06:29.561Z,1.78
2022-11-19T07:11:53.612Z,1.90
2022-11-19T07:17:16.842Z,2.17
2022-11-19T07:22:41.781Z,1.94
2022-11-19T07:28:09.204Z,2.14
2022-11-19T07:33:35.674Z,1.95
2022-11-19T07:38:58.943Z,2.11
2022-11-19T07:44:23.039Z,2.03
2022-11-19T07:49:49.341Z,2.11
2022-11-19T07:55:17.284Z,1.90
2022-11-19T08:00:44.951Z,2.25
2022-11-19T08:06:14.840Z,2.24
2022-11-19T08:11:38.940Z,1.94
2022-11-19T08:17:00.759Z,2.36
2022-11-19T08:22:22.058Z,2.39
2022-11-19T08:27:48.883Z,2.37
2022-11-19T08:33:14.648Z,1.97
2022-11-19T08:38:39.211Z,2.03
2022-11-19T08:44:04.855Z,2.31
2022-11-19T08:49:28.437Z,2.62
2022-11-19T08:54:58.765Z,2.52
2022-11-19T09:00:24.014Z,2.22
2022-11-19T09:05:49.350Z,2.69
2022-11-19T09:11:20.446Z,2.43
2022-11-19T09:16:42.087Z,1.95
2022-11-19T09:22:05.643Z,2.14
2022-11-19T09:27:28.045Z,2.37
2022-11-19T09:32:50.989Z,2.80
2022-11-19T09:38:19.475Z,2.92
2022-11-19T09:43:44.970Z,2.79
2022-11-19T09:49:10.042Z,3.18
2022-11-19T09:54:41.372Z,2.56
2022-11-19T10:00:04.275Z,3.47
2022-11-19T10:05:33.107Z,2.25
2022-11-19T10:10:58.137Z,1.72
2022-11-19T10:16:22.937Z,1.34
2022-11-19T10:21:51.820Z,1.06
2022-11-19T10:27:18.082Z,1.30
2022-11-19T10:32:42.171Z,1.15
2022-11-19T10:38:10.316Z,1.25
2022-11-19T10:43:36.649Z,1.25
2022-11-19T10:49:01.820Z,1.77
2022-11-19T10:54:28.291Z,2.20
2022-11-19T10:59:52.921Z,2.07
2022-11-19T11:05:19.047Z,2.59
2022-11-19T11:10:46.359Z,2.45
2022-11-19T11:16:09.345Z,2.23
2022-11-19T11:21:39.317Z,2.45
2022-11-19T11:27:01.696Z,2.72
2022-11-19T11:32:40.491Z,2.73
2022-11-19T11:38:04.644Z,3.20
2022-11-19T11:43:29.546Z,3.06
2022-11-19T11:48:53.210Z,3.15
2022-11-19T11:54:19.908Z,3.94
2022-11-19T11:59:44.536Z,3.63
2022-11-19T12:05:10.717Z,3.57
2022-11-19T12:10:33.144Z,4.25
2022-11-19T12:15:59.039Z,3.77
2022-11-19T12:21:26.115Z,3.83
2022-11-19T12:26:53.821Z,4.25
2022-11-19T12:32:21.063Z,4.35
2022-11-19T12:37:51.310Z,4.19
2022-11-19T12:43:22.982Z,4.55
2022-11-19T12:49:05.159Z,4.38
2022-11-19T12:54:56.781Z,4.50
2022-11-19T13:00:21.147Z,3.98
2022-11-19T13:05:43.179Z,4.58
2022-11-19T13:11:10.010Z,4.70
2022-11-19T13:16:33.808Z,4.82
2022-11-19T13:21:58.228Z,4.75
2022-11-19T13:27:25.458Z,5.11
2022-11-19T13:32:46.209Z,5.34
2022-11-19T13:38:09.223Z,4.62
2022-11-19T13:43:32.791Z,4.86
2022-11-19T13:48:55.076Z,5.38
2022-11-19T13:54:20.223Z,3.95
2022-11-19T13:59:46.135Z,3.60
2022-11-19T14:05:07.421Z,3.43
2022-11-19T14:10:45.015Z,3.71
2022-11-19T14:16:12.305Z,3.10
2022-11-19T14:21:41.104Z,3.76
2022-11-19T14:27:07.613Z,3.50
2022-11-19T14:32:41.612Z,3.51
2022-11-19T14:38:07.458Z,3.45
2022-11-19T14:43:50.892Z,3.41
2022-11-19T14:49:50.579Z,3.07
2022-11-19T14:55:16.409Z,2.90
2022-11-19T15:00:41.171Z,4.07
2022-11-19T15:06:05.676Z,3.56
2022-11-19T15:11:29.813Z,2.90
2022-11-19T15:17:19.807Z,2.82
2022-11-19T15:22:45.620Z,3.15
2022-11-19T15:28:15.408Z,3.08
2022-11-19T15:33:47.940Z,3.31
2022-11-19T15:39:24.774Z,2.95
2022-11-19T15:44:48.438Z,3.26
2022-11-19T15:50:15.893Z,3.10
2022-11-19T15:55:38.213Z,3.86
2022-11-19T16:01:07.715Z,3.47
2022-11-19T16:06:34.671Z,3.09
2022-11-19T16:12:02.243Z,3.13
2022-11-19T16:17:38.241Z,3.17
2022-11-19T16:23:01.610Z,3.08
2022-11-19T16:28:27.787Z,3.96
2022-11-19T16:33:52.051Z,4.38
2022-11-19T16:39:17.986Z,4.51
2022-11-19T16:44:41.736Z,4.80
2022-11-19T16:50:08.843Z,4.90
2022-11-19T16:55:49.223Z,4.56
2022-11-19T17:01:28.011Z,4.91
2022-11-19T17:06:50.028Z,4.90
2022-11-19T17:12:18.858Z,5.11
2022-11-19T17:17:46.785Z,5.48
2022-11-19T17:23:23.071Z,5.36
2022-11-19T17:28:48.095Z,5.28
2022-11-19T17:34:13.267Z,5.45
2022-11-19T17:39:42.307Z,4.84
2022-11-19T17:46:05.023Z,6.84
2022-11-19T17:51:28.358Z,6.51
2022-11-19T17:56:57.304Z,6.59
2022-11-19T18:02:23.175Z,5.90
2022-11-19T18:07:49.910Z,6.09
2022-11-19T18:13:22.169Z,6.11
2022-11-19T18:18:47.838Z,5.88
2022-11-19T18:24:14.638Z,5.85
2022-11-19T18:29:38.573Z,6.60
2022-11-19T18:35:02.187Z,6.54
2022-11-19T18:40:30.469Z,6.52
2022-11-19T18:45:56.365Z,6.49
2022-11-19T18:51:20.004Z,7.43
2022-11-19T18:56:45.519Z,6.41
2022-11-19T19:02:09.948Z,7.23
2022-11-19T19:07:32.698Z,7.09
2022-11-19T19:12:56.423Z,7.01
2022-11-19T19:18:17.828Z,7.29
2022-11-19T19:23:43.065Z,7.43
2022-11-19T19:29:11.858Z,7.78
2022-11-19T19:34:33.488Z,7.58
2022-11-19T19:39:56.452Z,7.39
2022-11-19T19:45:19.782Z,7.76
2022-11-19T19:50:43.407Z,7.38
2022-11-19T19:56:11.551Z,7.73
2022-11-19T20:01:33.728Z,7.66
2022-11-19T20:06:59.752Z,7.95
2022-11-19T20:12:23.428Z,8.11
2022-11-19T20:17:49.089Z,7.99
2022-11-19T20:23:11.398Z,8.15
2022-11-19T20:28:35.888Z,8.17
2022-11-19T20:34:00.570Z,8.03
2022-11-19T20:39:22.630Z,7.73
2022-11-19T20:44:48.903Z,7.61
2022-11-19T20:50:19.022Z,7.54
2022-11-19T20:56:03.944Z,7.84
2022-11-19T21:01:08.516Z,7.64
2022-11-19T21:06:34.145Z,7.49
2022-11-19T21:12:56.721Z,9.85
2022-11-19T21:18:22.102Z,7.98
2022-11-19T21:23:44.445Z,8.19
2022-11-19T21:29:09.788Z,8.17
2022-11-19T21:34:33.772Z,8.82
2022-11-19T21:39:58.912Z,7.18
2022-11-19T21:45:25.157Z,7.48
2022-11-19T21:50:50.704Z,8.65
2022-11-19T21:56:19.982Z,7.46
2022-11-19T22:01:54.566Z,7.99
2022-11-19T22:07:18.413Z,7.83
2022-11-19T22:12:47.606Z,8.15
2022-11-19T22:18:13.932Z,7.73
2022-11-19T22:23:44.091Z,8.82
2022-11-19T22:29:10.456Z,7.50
2022-11-19T22:34:38.790Z,7.98
2022-11-19T22:40:05.928Z,7.94
2022-11-19T22:45:35.158Z,7.89
2022-11-19T22:51:03.620Z,8.09
2022-11-19T22:56:31.871Z,8.70
2022-11-19T23:01:58.106Z,8.58
2022-11-19T23:07:24.237Z,8.78
2022-11-19T23:12:47.592Z,8.79
2022-11-19T23:18:13.019Z,9.19
2022-11-19T23:23:39.478Z,8.88
2022-11-19T23:29:02.460Z,8.69
2022-11-19T23:34:24.626Z,8.42
2022-11-19T23:39:51.957Z,8.08
2022-11-19T23:45:17.783Z,8.32
2022-11-19T23:50:45.345Z,9.42
2022-11-19T23:56:12.501Z,9.08
